sensor_id;sensor_type;location;lat;lon;timestamp;P1;durP1;ratioP1;P2;durP2;ratioP2
67528;SDS011;54366;51.980;5.856;2023-04-30T00:01:04;7.82;;;5.55;;
67528;SDS011;54366;51.980;5.856;2023-04-30T00:03:37;6.15;;;5.20;;
67528;SDS011;54366;51.980;5.856;2023-04-30T00:06:10;5.97;;;5.38;;
67528;SDS011;54366;51.980;5.856;2023-04-30T00:08:43;6.25;;;4.72;;
67528;SDS011;54366;51.980;5.856;2023-04-30T00:11:16;5.90;;;5.30;;
67528;SDS011;54366;51.980;5.856;2023-04-30T00:13:42;6.68;;;5.38;;
67528;SDS011;54366;51.980;5.856;2023-04-30T00:16:15;6.35;;;4.97;;
67528;SDS011;54366;51.980;5.856;2023-04-30T00:18:48;5.40;;;4.70;;
67528;SDS011;54366;51.980;5.856;2023-04-30T00:21:21;6.35;;;5.00;;
67528;SDS011;54366;51.980;5.856;2023-04-30T00:23:54;5.63;;;4.40;;
67528;SDS011;54366;51.980;5.856;2023-04-30T00:26:27;6.00;;;4.78;;
67528;SDS011;54366;51.980;5.856;2023-04-30T00:28:53;5.80;;;4.47;;
67528;SDS011;54366;51.980;5.856;2023-04-30T00:31:26;6.70;;;4.20;;
67528;SDS011;54366;51.980;5.856;2023-04-30T00:33:59;5.18;;;4.15;;
67528;SDS011;54366;51.980;5.856;2023-04-30T00:36:38;5.07;;;4.28;;
67528;SDS011;54366;51.980;5.856;2023-04-30T00:39:12;5.32;;;4.47;;
67528;SDS011;54366;51.980;5.856;2023-04-30T00:41:45;4.45;;;4.05;;
67528;SDS011;54366;51.980;5.856;2023-04-30T00:44:11;5.40;;;4.45;;
67528;SDS011;54366;51.980;5.856;2023-04-30T00:46:44;4.85;;;4.28;;
67528;SDS011;54366;51.980;5.856;2023-04-30T00:49:17;4.30;;;3.75;;
67528;SDS011;54366;51.980;5.856;2023-04-30T00:51:44;4.70;;;3.85;;
67528;SDS011;54366;51.980;5.856;2023-04-30T00:54:17;5.32;;;4.25;;
67528;SDS011;54366;51.980;5.856;2023-04-30T00:56:51;4.85;;;4.10;;
67528;SDS011;54366;51.980;5.856;2023-04-30T00:59:24;4.32;;;3.80;;
67528;SDS011;54366;51.980;5.856;2023-04-30T01:01:51;4.72;;;4.30;;
67528;SDS011;54366;51.980;5.856;2023-04-30T01:04:25;4.47;;;4.03;;
67528;SDS011;54366;51.980;5.856;2023-04-30T01:06:58;4.43;;;3.90;;
67528;SDS011;54366;51.980;5.856;2023-04-30T01:09:33;4.05;;;3.65;;
67528;SDS011;54366;51.980;5.856;2023-04-30T01:12:14;3.88;;;3.50;;
67528;SDS011;54366;51.980;5.856;2023-04-30T01:14:55;4.47;;;3.50;;
67528;SDS011;54366;51.980;5.856;2023-04-30T01:20:27;4.05;;;3.15;;
67528;SDS011;54366;51.980;5.856;2023-04-30T01:23:18;3.50;;;3.20;;
67528;SDS011;54366;51.980;5.856;2023-04-30T01:26:52;4.35;;;3.35;;
67528;SDS011;54366;51.980;5.856;2023-04-30T01:29:56;3.45;;;3.15;;
67528;SDS011;54366;51.980;5.856;2023-04-30T01:32:43;3.67;;;3.17;;
67528;SDS011;54366;51.980;5.856;2023-04-30T01:35:16;3.92;;;3.42;;
67528;SDS011;54366;51.980;5.856;2023-04-30T01:38:01;4.78;;;3.40;;
67528;SDS011;54366;51.980;5.856;2023-04-30T01:41:14;4.22;;;3.17;;
67528;SDS011;54366;51.980;5.856;2023-04-30T01:47:47;3.65;;;3.30;;
67528;SDS011;54366;51.980;5.856;2023-04-30T01:51:08;3.83;;;3.42;;
67528;SDS011;54366;51.980;5.856;2023-04-30T01:53:51;4.15;;;3.30;;
67528;SDS011;54366;51.980;5.856;2023-04-30T01:56:35;4.70;;;3.50;;
67528;SDS011;54366;51.980;5.856;2023-04-30T01:59:15;3.63;;;3.20;;
67528;SDS011;54366;51.980;5.856;2023-04-30T02:01:49;5.00;;;3.33;;
67528;SDS011;54366;51.980;5.856;2023-04-30T02:04:23;5.25;;;3.58;;
67528;SDS011;54366;51.980;5.856;2023-04-30T02:06:56;4.72;;;3.47;;
67528;SDS011;54366;51.980;5.856;2023-04-30T02:09:30;4.25;;;3.75;;
67528;SDS011;54366;51.980;5.856;2023-04-30T02:11:56;4.95;;;3.75;;
67528;SDS011;54366;51.980;5.856;2023-04-30T02:14:30;4.90;;;3.40;;
67528;SDS011;54366;51.980;5.856;2023-04-30T02:16:56;3.53;;;3.22;;
67528;SDS011;54366;51.980;5.856;2023-04-30T02:19:29;3.83;;;3.42;;
67528;SDS011;54366;51.980;5.856;2023-04-30T02:22:02;3.90;;;3.55;;
67528;SDS011;54366;51.980;5.856;2023-04-30T02:24:28;5.55;;;4.15;;
67528;SDS011;54366;51.980;5.856;2023-04-30T02:27:01;5.43;;;3.70;;
67528;SDS011;54366;51.980;5.856;2023-04-30T02:29:34;3.65;;;3.35;;
67528;SDS011;54366;51.980;5.856;2023-04-30T02:32:07;3.95;;;3.65;;
67528;SDS011;54366;51.980;5.856;2023-04-30T02:34:40;4.22;;;3.83;;
67528;SDS011;54366;51.980;5.856;2023-04-30T02:37:19;3.70;;;3.40;;
67528;SDS011;54366;51.980;5.856;2023-04-30T02:39:52;4.30;;;3.75;;
67528;SDS011;54366;51.980;5.856;2023-04-30T02:42:25;5.47;;;3.90;;
67528;SDS011;54366;51.980;5.856;2023-04-30T02:44:51;5.40;;;4.35;;
67528;SDS011;54366;51.980;5.856;2023-04-30T02:47:24;4.68;;;4.13;;
67528;SDS011;54366;51.980;5.856;2023-04-30T02:49:57;4.72;;;3.33;;
67528;SDS011;54366;51.980;5.856;2023-04-30T02:52:23;5.13;;;3.45;;
67528;SDS011;54366;51.980;5.856;2023-04-30T02:54:57;3.97;;;3.63;;
67528;SDS011;54366;51.980;5.856;2023-04-30T02:57:30;3.97;;;3.67;;
67528;SDS011;54366;51.980;5.856;2023-04-30T02:59:56;3.65;;;2.95;;
67528;SDS011;54366;51.980;5.856;2023-04-30T03:02:29;3.83;;;3.53;;
67528;SDS011;54366;51.980;5.856;2023-04-30T03:05:02;4.30;;;3.72;;
67528;SDS011;54366;51.980;5.856;2023-04-30T03:07:35;5.45;;;3.65;;
67528;SDS011;54366;51.980;5.856;2023-04-30T03:10:08;4.20;;;3.80;;
67528;SDS011;54366;51.980;5.856;2023-04-30T03:12:35;4.00;;;3.40;;
67528;SDS011;54366;51.980;5.856;2023-04-30T03:15:08;4.22;;;3.55;;
67528;SDS011;54366;51.980;5.856;2023-04-30T03:17:42;5.30;;;3.88;;
67528;SDS011;54366;51.980;5.856;2023-04-30T03:20:15;4.13;;;3.72;;
67528;SDS011;54366;51.980;5.856;2023-04-30T03:22:48;3.97;;;3.40;;
67528;SDS011;54366;51.980;5.856;2023-04-30T03:25:21;4.18;;;3.67;;
67528;SDS011;54366;51.980;5.856;2023-04-30T03:27:47;3.83;;;3.42;;
67528;SDS011;54366;51.980;5.856;2023-04-30T03:30:20;3.72;;;3.40;;
67528;SDS011;54366;51.980;5.856;2023-04-30T03:32:53;5.90;;;3.90;;
67528;SDS011;54366;51.980;5.856;2023-04-30T03:35:26;4.10;;;3.65;;
67528;SDS011;54366;51.980;5.856;2023-04-30T03:38:05;4.97;;;3.63;;
67528;SDS011;54366;51.980;5.856;2023-04-30T03:40:45;4.40;;;3.13;;
67528;SDS011;54366;51.980;5.856;2023-04-30T03:43:18;6.53;;;4.15;;
67528;SDS011;54366;51.980;5.856;2023-04-30T03:45:52;4.95;;;3.70;;
67528;SDS011;54366;51.980;5.856;2023-04-30T03:48:25;4.97;;;3.60;;
67528;SDS011;54366;51.980;5.856;2023-04-30T03:50:58;4.68;;;3.03;;
67528;SDS011;54366;51.980;5.856;2023-04-30T03:53:31;4.28;;;3.35;;
67528;SDS011;54366;51.980;5.856;2023-04-30T03:56:05;4.53;;;3.03;;
67528;SDS011;54366;51.980;5.856;2023-04-30T03:58:32;3.70;;;2.90;;
67528;SDS011;54366;51.980;5.856;2023-04-30T04:01:05;3.93;;;3.40;;
67528;SDS011;54366;51.980;5.856;2023-04-30T04:03:38;3.88;;;3.03;;
67528;SDS011;54366;51.980;5.856;2023-04-30T04:06:11;4.82;;;3.28;;
67528;SDS011;54366;51.980;5.856;2023-04-30T04:08:45;6.18;;;3.55;;
67528;SDS011;54366;51.980;5.856;2023-04-30T04:11:18;5.80;;;3.40;;
67528;SDS011;54366;51.980;5.856;2023-04-30T04:13:52;5.35;;;4.13;;
67528;SDS011;54366;51.980;5.856;2023-04-30T04:16:25;7.25;;;5.00;;
67528;SDS011;54366;51.980;5.856;2023-04-30T04:18:58;5.15;;;3.85;;
67528;SDS011;54366;51.980;5.856;2023-04-30T04:21:32;7.00;;;3.90;;
67528;SDS011;54366;51.980;5.856;2023-04-30T04:24:00;4.47;;;3.67;;
67528;SDS011;54366;51.980;5.856;2023-04-30T04:26:39;6.43;;;4.78;;
67528;SDS011;54366;51.980;5.856;2023-04-30T04:29:12;4.90;;;4.00;;
67528;SDS011;54366;51.980;5.856;2023-04-30T04:31:45;4.72;;;4.28;;
67528;SDS011;54366;51.980;5.856;2023-04-30T04:34:20;5.07;;;4.10;;
67528;SDS011;54366;51.980;5.856;2023-04-30T04:36:53;4.03;;;3.63;;
67528;SDS011;54366;51.980;5.856;2023-04-30T04:39:33;7.00;;;5.13;;
67528;SDS011;54366;51.980;5.856;2023-04-30T04:42:07;5.85;;;3.83;;
67528;SDS011;54366;51.980;5.856;2023-04-30T04:44:34;6.28;;;4.20;;
67528;SDS011;54366;51.980;5.856;2023-04-30T04:47:07;5.10;;;3.50;;
67528;SDS011;54366;51.980;5.856;2023-04-30T04:49:41;6.93;;;4.53;;
67528;SDS011;54366;51.980;5.856;2023-04-30T04:52:14;5.55;;;4.13;;
67528;SDS011;54366;51.980;5.856;2023-04-30T04:54:47;4.10;;;3.50;;
67528;SDS011;54366;51.980;5.856;2023-04-30T04:57:20;4.97;;;4.07;;
67528;SDS011;54366;51.980;5.856;2023-04-30T04:59:46;5.70;;;4.43;;
67528;SDS011;54366;51.980;5.856;2023-04-30T05:02:19;6.55;;;4.80;;
67528;SDS011;54366;51.980;5.856;2023-04-30T05:04:54;7.05;;;5.00;;
67528;SDS011;54366;51.980;5.856;2023-04-30T05:07:28;6.87;;;4.80;;
67528;SDS011;54366;51.980;5.856;2023-04-30T05:10:01;5.55;;;4.80;;
67528;SDS011;54366;51.980;5.856;2023-04-30T05:12:28;6.32;;;5.72;;
67528;SDS011;54366;51.980;5.856;2023-04-30T05:15:00;7.80;;;6.30;;
67528;SDS011;54366;51.980;5.856;2023-04-30T05:17:33;6.53;;;5.30;;
67528;SDS011;54366;51.980;5.856;2023-04-30T05:20:06;6.13;;;5.30;;
67528;SDS011;54366;51.980;5.856;2023-04-30T05:22:40;13.45;;;8.50;;
67528;SDS011;54366;51.980;5.856;2023-04-30T05:25:06;6.53;;;5.75;;
67528;SDS011;54366;51.980;5.856;2023-04-30T05:27:40;7.68;;;6.20;;
67528;SDS011;54366;51.980;5.856;2023-04-30T05:30:13;9.48;;;7.88;;
67528;SDS011;54366;51.980;5.856;2023-04-30T05:32:49;9.82;;;7.70;;
67528;SDS011;54366;51.980;5.856;2023-04-30T05:35:23;8.20;;;6.47;;
67528;SDS011;54366;51.980;5.856;2023-04-30T05:37:56;6.00;;;5.40;;
67528;SDS011;54366;51.980;5.856;2023-04-30T05:40:36;7.70;;;5.80;;
67528;SDS011;54366;51.980;5.856;2023-04-30T05:43:02;7.57;;;6.47;;
67528;SDS011;54366;51.980;5.856;2023-04-30T05:45:36;7.47;;;5.60;;
67528;SDS011;54366;51.980;5.856;2023-04-30T05:48:09;6.50;;;5.72;;
67528;SDS011;54366;51.980;5.856;2023-04-30T05:50:35;9.32;;;7.70;;
67528;SDS011;54366;51.980;5.856;2023-04-30T05:53:08;6.28;;;5.43;;
67528;SDS011;54366;51.980;5.856;2023-04-30T05:55:41;6.70;;;5.25;;
67528;SDS011;54366;51.980;5.856;2023-04-30T05:58:14;7.00;;;5.72;;
67528;SDS011;54366;51.980;5.856;2023-04-30T06:00:47;5.57;;;4.80;;
67528;SDS011;54366;51.980;5.856;2023-04-30T06:03:15;6.80;;;5.45;;
67528;SDS011;54366;51.980;5.856;2023-04-30T06:05:48;10.27;;;6.72;;
67528;SDS011;54366;51.980;5.856;2023-04-30T06:08:21;7.20;;;6.47;;
67528;SDS011;54366;51.980;5.856;2023-04-30T06:10:54;7.25;;;5.38;;
67528;SDS011;54366;51.980;5.856;2023-04-30T06:13:27;8.82;;;6.70;;
67528;SDS011;54366;51.980;5.856;2023-04-30T06:16:00;8.32;;;6.05;;
67528;SDS011;54366;51.980;5.856;2023-04-30T06:18:33;7.95;;;6.20;;
67528;SDS011;54366;51.980;5.856;2023-04-30T06:20:59;7.60;;;6.25;;
67528;SDS011;54366;51.980;5.856;2023-04-30T06:23:32;6.97;;;5.90;;
67528;SDS011;54366;51.980;5.856;2023-04-30T06:26:05;6.43;;;5.30;;
67528;SDS011;54366;51.980;5.856;2023-04-30T06:28:38;6.75;;;5.13;;
67528;SDS011;54366;51.980;5.856;2023-04-30T06:31:11;7.85;;;5.97;;
67528;SDS011;54366;51.980;5.856;2023-04-30T06:33:44;8.02;;;5.63;;
67528;SDS011;54366;51.980;5.856;2023-04-30T06:36:10;8.20;;;6.40;;
67528;SDS011;54366;51.980;5.856;2023-04-30T06:38:49;7.68;;;6.30;;
67528;SDS011;54366;51.980;5.856;2023-04-30T06:41:22;8.13;;;7.18;;
67528;SDS011;54366;51.980;5.856;2023-04-30T06:43:48;8.18;;;6.40;;
67528;SDS011;54366;51.980;5.856;2023-04-30T06:46:21;6.78;;;5.72;;
67528;SDS011;54366;51.980;5.856;2023-04-30T06:48:47;8.07;;;5.70;;
67528;SDS011;54366;51.980;5.856;2023-04-30T06:51:20;9.32;;;6.50;;
67528;SDS011;54366;51.980;5.856;2023-04-30T06:53:53;9.18;;;6.95;;
67528;SDS011;54366;51.980;5.856;2023-04-30T06:56:26;7.60;;;6.70;;
67528;SDS011;54366;51.980;5.856;2023-04-30T06:58:52;9.10;;;7.03;;
67528;SDS011;54366;51.980;5.856;2023-04-30T07:01:25;8.05;;;6.38;;
67528;SDS011;54366;51.980;5.856;2023-04-30T07:03:58;9.90;;;7.47;;
67528;SDS011;54366;51.980;5.856;2023-04-30T07:06:31;7.80;;;7.00;;
67528;SDS011;54366;51.980;5.856;2023-04-30T07:08:58;8.38;;;6.97;;
67528;SDS011;54366;51.980;5.856;2023-04-30T07:11:31;8.90;;;6.88;;
67528;SDS011;54366;51.980;5.856;2023-04-30T07:13:57;8.82;;;7.05;;
67528;SDS011;54366;51.980;5.856;2023-04-30T07:16:30;8.63;;;7.20;;
67528;SDS011;54366;51.980;5.856;2023-04-30T07:19:04;9.20;;;6.80;;
67528;SDS011;54366;51.980;5.856;2023-04-30T07:21:37;7.47;;;6.57;;
67528;SDS011;54366;51.980;5.856;2023-04-30T07:24:10;8.00;;;7.18;;
67528;SDS011;54366;51.980;5.856;2023-04-30T07:26:43;8.25;;;6.22;;
67528;SDS011;54366;51.980;5.856;2023-04-30T07:29:16;6.75;;;5.95;;
67528;SDS011;54366;51.980;5.856;2023-04-30T07:31:42;7.35;;;6.18;;
67528;SDS011;54366;51.980;5.856;2023-04-30T07:34:15;7.07;;;6.18;;
67528;SDS011;54366;51.980;5.856;2023-04-30T07:36:48;7.68;;;6.15;;
67528;SDS011;54366;51.980;5.856;2023-04-30T07:39:28;7.05;;;5.53;;
67528;SDS011;54366;51.980;5.856;2023-04-30T07:42:02;7.72;;;5.78;;
67528;SDS011;54366;51.980;5.856;2023-04-30T07:44:29;5.95;;;5.35;;
67528;SDS011;54366;51.980;5.856;2023-04-30T07:47:03;5.60;;;5.00;;
67528;SDS011;54366;51.980;5.856;2023-04-30T07:49:36;7.05;;;5.40;;
67528;SDS011;54366;51.980;5.856;2023-04-30T07:52:09;8.02;;;6.20;;
67528;SDS011;54366;51.980;5.856;2023-04-30T07:54:43;8.18;;;6.45;;
67528;SDS011;54366;51.980;5.856;2023-04-30T07:57:16;6.53;;;5.68;;
67528;SDS011;54366;51.980;5.856;2023-04-30T07:59:42;5.82;;;4.75;;
67528;SDS011;54366;51.980;5.856;2023-04-30T08:02:15;7.28;;;5.57;;
67528;SDS011;54366;51.980;5.856;2023-04-30T08:04:48;6.20;;;4.88;;
67528;SDS011;54366;51.980;5.856;2023-04-30T08:07:14;7.57;;;5.57;;
67528;SDS011;54366;51.980;5.856;2023-04-30T08:09:47;7.72;;;5.53;;
67528;SDS011;54366;51.980;5.856;2023-04-30T08:12:20;7.75;;;5.45;;
67528;SDS011;54366;51.980;5.856;2023-04-30T08:15:01;5.88;;;5.35;;
67528;SDS011;54366;51.980;5.856;2023-04-30T08:17:35;5.40;;;4.78;;
67528;SDS011;54366;51.980;5.856;2023-04-30T08:20:04;5.93;;;5.15;;
67528;SDS011;54366;51.980;5.856;2023-04-30T08:22:39;6.40;;;5.30;;
67528;SDS011;54366;51.980;5.856;2023-04-30T08:25:12;7.15;;;5.30;;
67528;SDS011;54366;51.980;5.856;2023-04-30T08:27:45;5.68;;;4.32;;
67528;SDS011;54366;51.980;5.856;2023-04-30T08:30:18;6.90;;;4.80;;
67528;SDS011;54366;51.980;5.856;2023-04-30T08:32:51;5.05;;;4.50;;
67528;SDS011;54366;51.980;5.856;2023-04-30T08:35:17;5.82;;;4.40;;
67528;SDS011;54366;51.980;5.856;2023-04-30T08:37:51;6.13;;;4.07;;
67528;SDS011;54366;51.980;5.856;2023-04-30T08:40:30;5.93;;;4.93;;
67528;SDS011;54366;51.980;5.856;2023-04-30T08:43:07;6.10;;;4.88;;
67528;SDS011;54366;51.980;5.856;2023-04-30T08:45:42;5.30;;;4.25;;
67528;SDS011;54366;51.980;5.856;2023-04-30T08:48:15;6.15;;;4.60;;
67528;SDS011;54366;51.980;5.856;2023-04-30T08:50:50;7.35;;;5.63;;
67528;SDS011;54366;51.980;5.856;2023-04-30T08:53:23;7.18;;;4.88;;
67528;SDS011;54366;51.980;5.856;2023-04-30T08:55:56;4.45;;;4.03;;
67528;SDS011;54366;51.980;5.856;2023-04-30T08:58:29;4.35;;;3.90;;
67528;SDS011;54366;51.980;5.856;2023-04-30T09:00:58;4.43;;;3.55;;
67528;SDS011;54366;51.980;5.856;2023-04-30T09:03:32;4.50;;;4.10;;
67528;SDS011;54366;51.980;5.856;2023-04-30T09:05:58;5.13;;;3.70;;
67528;SDS011;54366;51.980;5.856;2023-04-30T09:08:41;5.18;;;4.20;;
67528;SDS011;54366;51.980;5.856;2023-04-30T09:14:09;5.30;;;4.28;;
67528;SDS011;54366;51.980;5.856;2023-04-30T09:16:46;5.47;;;4.10;;
67528;SDS011;54366;51.980;5.856;2023-04-30T09:19:23;3.83;;;3.08;;
67528;SDS011;54366;51.980;5.856;2023-04-30T09:21:57;4.35;;;3.70;;
67528;SDS011;54366;51.980;5.856;2023-04-30T09:24:33;4.15;;;3.28;;
67528;SDS011;54366;51.980;5.856;2023-04-30T09:27:18;4.43;;;3.88;;
67528;SDS011;54366;51.980;5.856;2023-04-30T09:29:52;3.38;;;3.05;;
67528;SDS011;54366;51.980;5.856;2023-04-30T09:32:25;4.20;;;3.67;;
67528;SDS011;54366;51.980;5.856;2023-04-30T09:34:58;4.47;;;4.07;;
67528;SDS011;54366;51.980;5.856;2023-04-30T09:37:37;4.60;;;3.83;;
67528;SDS011;54366;51.980;5.856;2023-04-30T09:40:17;3.97;;;3.42;;
67528;SDS011;54366;51.980;5.856;2023-04-30T09:42:59;4.18;;;3.70;;
67528;SDS011;54366;51.980;5.856;2023-04-30T09:45:41;4.65;;;3.50;;
67528;SDS011;54366;51.980;5.856;2023-04-30T09:48:22;3.47;;;3.08;;
67528;SDS011;54366;51.980;5.856;2023-04-30T09:50:56;3.60;;;3.30;;
67528;SDS011;54366;51.980;5.856;2023-04-30T09:53:29;3.35;;;3.05;;
67528;SDS011;54366;51.980;5.856;2023-04-30T09:55:56;3.53;;;3.22;;
67528;SDS011;54366;51.980;5.856;2023-04-30T09:58:35;4.10;;;3.70;;
67528;SDS011;54366;51.980;5.856;2023-04-30T10:01:09;4.45;;;3.60;;
67528;SDS011;54366;51.980;5.856;2023-04-30T10:03:42;3.95;;;2.53;;
67528;SDS011;54366;51.980;5.856;2023-04-30T10:06:15;3.05;;;2.28;;
67528;SDS011;54366;51.980;5.856;2023-04-30T10:08:52;2.92;;;2.53;;
67528;SDS011;54366;51.980;5.856;2023-04-30T10:11:28;3.15;;;2.85;;
67528;SDS011;54366;51.980;5.856;2023-04-30T10:14:13;3.58;;;2.95;;
67528;SDS011;54366;51.980;5.856;2023-04-30T10:16:58;3.33;;;2.72;;
67528;SDS011;54366;51.980;5.856;2023-04-30T10:19:38;2.17;;;1.92;;
67528;SDS011;54366;51.980;5.856;2023-04-30T10:22:06;1.85;;;1.23;;
67528;SDS011;54366;51.980;5.856;2023-04-30T10:27:14;2.37;;;2.17;;
67528;SDS011;54366;51.980;5.856;2023-04-30T10:29:40;3.05;;;2.40;;
67528;SDS011;54366;51.980;5.856;2023-04-30T10:32:14;3.05;;;2.63;;
67528;SDS011;54366;51.980;5.856;2023-04-30T10:37:58;2.00;;;1.77;;
67528;SDS011;54366;51.980;5.856;2023-04-30T10:40:56;2.45;;;2.25;;
67528;SDS011;54366;51.980;5.856;2023-04-30T10:43:37;2.60;;;2.40;;
67528;SDS011;54366;51.980;5.856;2023-04-30T10:46:03;3.13;;;2.33;;
67528;SDS011;54366;51.980;5.856;2023-04-30T10:48:36;3.50;;;2.75;;
67528;SDS011;54366;51.980;5.856;2023-04-30T10:51:09;2.60;;;2.40;;
67528;SDS011;54366;51.980;5.856;2023-04-30T10:53:42;2.42;;;2.22;;
67528;SDS011;54366;51.980;5.856;2023-04-30T10:56:28;2.30;;;2.10;;
67528;SDS011;54366;51.980;5.856;2023-04-30T10:59:03;2.42;;;2.22;;
67528;SDS011;54366;51.980;5.856;2023-04-30T11:01:29;2.78;;;2.58;;
67528;SDS011;54366;51.980;5.856;2023-04-30T11:04:11;2.88;;;2.25;;
67528;SDS011;54366;51.980;5.856;2023-04-30T11:06:47;2.65;;;2.35;;
67528;SDS011;54366;51.980;5.856;2023-04-30T11:09:41;4.20;;;3.40;;
67528;SDS011;54366;51.980;5.856;2023-04-30T11:12:19;2.67;;;2.30;;
67528;SDS011;54366;51.980;5.856;2023-04-30T11:15:03;2.75;;;2.50;;
67528;SDS011;54366;51.980;5.856;2023-04-30T11:17:38;2.70;;;2.42;;
67528;SDS011;54366;51.980;5.856;2023-04-30T11:20:11;2.42;;;2.22;;
67528;SDS011;54366;51.980;5.856;2023-04-30T11:22:39;3.65;;;2.38;;
67528;SDS011;54366;51.980;5.856;2023-04-30T11:25:12;4.32;;;2.35;;
67528;SDS011;54366;51.980;5.856;2023-04-30T11:27:50;3.50;;;2.67;;
67528;SDS011;54366;51.980;5.856;2023-04-30T11:30:23;3.08;;;2.13;;
67528;SDS011;54366;51.980;5.856;2023-04-30T11:32:50;2.72;;;2.45;;
67528;SDS011;54366;51.980;5.856;2023-04-30T11:35:23;2.20;;;1.98;;
67528;SDS011;54366;51.980;5.856;2023-04-30T11:38:02;2.60;;;2.38;;
67528;SDS011;54366;51.980;5.856;2023-04-30T11:40:44;2.75;;;2.50;;
67528;SDS011;54366;51.980;5.856;2023-04-30T11:43:29;3.35;;;2.80;;
67528;SDS011;54366;51.980;5.856;2023-04-30T11:46:13;2.85;;;2.25;;
67528;SDS011;54366;51.980;5.856;2023-04-30T11:48:48;2.80;;;2.15;;
67528;SDS011;54366;51.980;5.856;2023-04-30T11:51:22;3.92;;;2.95;;
67528;SDS011;54366;51.980;5.856;2023-04-30T11:53:56;2.40;;;2.20;;
67528;SDS011;54366;51.980;5.856;2023-04-30T11:56:29;2.95;;;2.40;;
67528;SDS011;54366;51.980;5.856;2023-04-30T11:58:56;2.20;;;2.00;;
67528;SDS011;54366;51.980;5.856;2023-04-30T12:01:29;2.85;;;1.90;;
67528;SDS011;54366;51.980;5.856;2023-04-30T12:04:02;2.55;;;2.03;;
67528;SDS011;54366;51.980;5.856;2023-04-30T12:06:35;2.37;;;1.90;;
67528;SDS011;54366;51.980;5.856;2023-04-30T12:09:02;3.20;;;2.05;;
67528;SDS011;54366;51.980;5.856;2023-04-30T12:11:38;2.15;;;1.90;;
67528;SDS011;54366;51.980;5.856;2023-04-30T12:14:05;1.98;;;1.80;;
67528;SDS011;54366;51.980;5.856;2023-04-30T12:16:46;1.85;;;1.60;;
67528;SDS011;54366;51.980;5.856;2023-04-30T12:19:22;2.63;;;1.75;;
67528;SDS011;54366;51.980;5.856;2023-04-30T12:21:56;2.95;;;1.52;;
67528;SDS011;54366;51.980;5.856;2023-04-30T12:24:22;2.72;;;1.33;;
67528;SDS011;54366;51.980;5.856;2023-04-30T12:26:58;1.95;;;1.48;;
67528;SDS011;54366;51.980;5.856;2023-04-30T12:29:33;2.53;;;1.50;;
67528;SDS011;54366;51.980;5.856;2023-04-30T12:32:00;2.65;;;1.67;;
67528;SDS011;54366;51.980;5.856;2023-04-30T12:34:32;1.75;;;1.45;;
67528;SDS011;54366;51.980;5.856;2023-04-30T12:37:05;1.67;;;1.20;;
67528;SDS011;54366;51.980;5.856;2023-04-30T12:39:45;1.40;;;1.20;;
67528;SDS011;54366;51.980;5.856;2023-04-30T12:42:30;1.52;;;1.20;;
67528;SDS011;54366;51.980;5.856;2023-04-30T12:45:06;1.88;;;1.10;;
67528;SDS011;54366;51.980;5.856;2023-04-30T12:47:40;1.67;;;1.13;;
67528;SDS011;54366;51.980;5.856;2023-04-30T12:50:13;1.48;;;0.93;;
67528;SDS011;54366;51.980;5.856;2023-04-30T12:52:40;1.00;;;0.82;;
67528;SDS011;54366;51.980;5.856;2023-04-30T12:55:16;0.80;;;0.70;;
67528;SDS011;54366;51.980;5.856;2023-04-30T12:58:06;0.68;;;0.40;;
67528;SDS011;54366;51.980;5.856;2023-04-30T13:00:48;1.92;;;0.63;;
67528;SDS011;54366;51.980;5.856;2023-04-30T13:03:22;1.10;;;0.50;;
67528;SDS011;54366;51.980;5.856;2023-04-30T13:05:51;0.93;;;0.43;;
67528;SDS011;54366;51.980;5.856;2023-04-30T13:08:25;0.77;;;0.60;;
67528;SDS011;54366;51.980;5.856;2023-04-30T13:10:52;1.15;;;0.57;;
67528;SDS011;54366;51.980;5.856;2023-04-30T13:13:25;0.60;;;0.55;;
67528;SDS011;54366;51.980;5.856;2023-04-30T13:15:58;1.07;;;0.40;;
67528;SDS011;54366;51.980;5.856;2023-04-30T13:18:31;0.73;;;0.50;;
67528;SDS011;54366;51.980;5.856;2023-04-30T13:21:04;1.53;;;0.40;;
67528;SDS011;54366;51.980;5.856;2023-04-30T13:23:31;0.82;;;0.50;;
67528;SDS011;54366;51.980;5.856;2023-04-30T13:26:03;1.00;;;0.60;;
67528;SDS011;54366;51.980;5.856;2023-04-30T13:28:36;1.17;;;0.50;;
67528;SDS011;54366;51.980;5.856;2023-04-30T13:31:09;0.50;;;0.45;;
67528;SDS011;54366;51.980;5.856;2023-04-30T13:33:42;1.05;;;0.50;;
67528;SDS011;54366;51.980;5.856;2023-04-30T13:36:08;1.67;;;0.95;;
67528;SDS011;54366;51.980;5.856;2023-04-30T13:38:47;2.00;;;1.10;;
67528;SDS011;54366;51.980;5.856;2023-04-30T13:41:20;0.88;;;0.57;;
67528;SDS011;54366;51.980;5.856;2023-04-30T13:44:00;0.45;;;0.40;;
67528;SDS011;54366;51.980;5.856;2023-04-30T13:46:33;1.05;;;0.60;;
67528;SDS011;54366;51.980;5.856;2023-04-30T13:49:06;1.20;;;0.60;;
67528;SDS011;54366;51.980;5.856;2023-04-30T13:51:39;1.05;;;0.73;;
67528;SDS011;54366;51.980;5.856;2023-04-30T13:54:12;1.25;;;0.60;;
67528;SDS011;54366;51.980;5.856;2023-04-30T13:56:45;0.97;;;0.67;;
67528;SDS011;54366;51.980;5.856;2023-04-30T14:01:46;0.98;;;0.70;;
67528;SDS011;54366;51.980;5.856;2023-04-30T14:04:18;1.08;;;0.90;;
67528;SDS011;54366;51.980;5.856;2023-04-30T14:06:45;1.60;;;1.00;;
67528;SDS011;54366;51.980;5.856;2023-04-30T14:09:19;0.90;;;0.80;;
67528;SDS011;54366;51.980;5.856;2023-04-30T14:11:52;1.77;;;1.20;;
67528;SDS011;54366;51.980;5.856;2023-04-30T14:14:20;1.55;;;0.63;;
67528;SDS011;54366;51.980;5.856;2023-04-30T14:16:53;1.20;;;0.70;;
67528;SDS011;54366;51.980;5.856;2023-04-30T14:19:20;2.22;;;0.90;;
67528;SDS011;54366;51.980;5.856;2023-04-30T14:21:54;1.95;;;0.65;;
67528;SDS011;54366;51.980;5.856;2023-04-30T14:24:20;1.33;;;0.52;;
67528;SDS011;54366;51.980;5.856;2023-04-30T14:26:53;0.95;;;0.60;;
67528;SDS011;54366;51.980;5.856;2023-04-30T14:29:19;1.73;;;0.90;;
67528;SDS011;54366;51.980;5.856;2023-04-30T14:31:52;2.78;;;0.55;;
67528;SDS011;54366;51.980;5.856;2023-04-30T14:34:25;0.82;;;0.45;;
67528;SDS011;54366;51.980;5.856;2023-04-30T14:36:52;1.42;;;0.77;;
67528;SDS011;54366;51.980;5.856;2023-04-30T14:39:31;1.73;;;0.70;;
67528;SDS011;54366;51.980;5.856;2023-04-30T14:42:04;1.05;;;0.40;;
67528;SDS011;54366;51.980;5.856;2023-04-30T14:44:37;0.50;;;0.32;;
67528;SDS011;54366;51.980;5.856;2023-04-30T14:47:04;0.77;;;0.40;;
67528;SDS011;54366;51.980;5.856;2023-04-30T14:49:37;0.85;;;0.40;;
67528;SDS011;54366;51.980;5.856;2023-04-30T14:52:10;0.70;;;0.52;;
67528;SDS011;54366;51.980;5.856;2023-04-30T14:54:43;1.83;;;0.60;;
67528;SDS011;54366;51.980;5.856;2023-04-30T14:57:10;1.10;;;0.73;;
67528;SDS011;54366;51.980;5.856;2023-04-30T14:59:43;0.87;;;0.30;;
67528;SDS011;54366;51.980;5.856;2023-04-30T15:02:09;0.30;;;0.25;;
67528;SDS011;54366;51.980;5.856;2023-04-30T15:04:42;0.50;;;0.20;;
67528;SDS011;54366;51.980;5.856;2023-04-30T15:07:17;0.50;;;0.20;;
67528;SDS011;54366;51.980;5.856;2023-04-30T15:12:17;1.35;;;0.40;;
67528;SDS011;54366;51.980;5.856;2023-04-30T15:14:51;1.15;;;0.40;;
67528;SDS011;54366;51.980;5.856;2023-04-30T15:17:24;0.93;;;0.43;;
67528;SDS011;54366;51.980;5.856;2023-04-30T15:19:57;0.50;;;0.30;;
67528;SDS011;54366;51.980;5.856;2023-04-30T15:22:35;1.10;;;0.50;;
67528;SDS011;54366;51.980;5.856;2023-04-30T15:25:02;1.08;;;0.38;;
67528;SDS011;54366;51.980;5.856;2023-04-30T15:27:36;0.45;;;0.20;;
